Time;durP1;ratioP1;P1;durP2;ratioP2;P2;SDS_P1;SDS_P2;PMS_P1;PMS_P2;Temp;Humidity;BMP_temperature;BMP_pressure;BME280_temperature;BME280_humidity;BME280_pressure;Samples;Min_cycle;Max_cycle;Signal;HPM_P1;HPM_P2
2021/04/25 00:53:35;;;;;;;3.00;1.90;;;7.90;76.00;;;;;;5131426;23;20547;-50
2021/04/25 00:56:02;;;;;;;8.73;2.30;;;7.80;76.60;;;;;;4977648;28;20820;-49
2021/04/25 00:58:28;;;;;;;5.43;1.70;;;7.80;76.90;;;;;;4977498;28;20467;-48
2021/04/25 01:00:55;;;;;;;5.33;1.97;;;7.80;77.10;;;;;;4977769;28;20795;-49
2021/04/25 01:03:23;;;;;;;3.43;2.00;;;7.90;75.90;;;;;;4977661;28;20463;-52
2021/04/25 01:05:49;;;;;;;3.10;1.97;;;7.90;75.80;;;;;;4977377;28;20844;-49
2021/04/25 01:08:16;;;;;;;5.10;3.00;;;7.90;75.50;;;;;;4977543;28;20466;-51
2021/04/25 01:10:43;;;;;;;2.90;1.97;;;8.00;76.00;;;;;;4977302;28;20443;-53
2021/04/25 01:13:09;;;;;;;2.43;1.60;;;8.00;76.10;;;;;;4977173;28;20457;-50
2021/04/25 01:15:35;;;;;;;3.20;2.47;;;8.00;75.70;;;;;;4977310;28;20478;-50
2021/04/25 01:18:02;;;;;;;5.20;2.07;;;8.00;75.00;;;;;;4977055;28;20457;-51
2021/04/25 01:20:28;;;;;;;4.53;1.70;;;8.10;75.30;;;;;;4977158;28;20457;-46
2021/04/25 01:22:55;;;;;;;2.80;2.13;;;8.20;75.80;;;;;;4975866;28;20446;-51
2021/04/25 01:25:23;;;;;;;3.53;1.73;;;8.20;76.30;;;;;;4977173;28;20455;-60
2021/04/25 01:27:50;;;;;;;4.77;2.37;;;8.20;76.60;;;;;;4977208;28;20825;-53
2021/04/25 01:30:20;;;;;;;3.73;1.77;;;8.10;75.90;;;;;;4977020;28;20515;-48
2021/04/25 01:32:46;;;;;;;4.27;2.63;;;8.10;76.10;;;;;;4977083;28;20522;-51
2021/04/25 01:35:15;;;;;;;4.77;2.40;;;8.20;75.90;;;;;;4976804;28;20852;-53
2021/04/25 01:37:41;;;;;;;6.00;2.77;;;8.20;75.50;;;;;;4977061;28;20451;-57
2021/04/25 01:40:09;;;;;;;4.70;2.57;;;8.10;75.80;;;;;;4976684;28;21026;-52
2021/04/25 01:42:36;;;;;;;3.50;1.90;;;8.10;76.30;;;;;;4976685;28;20439;-51
2021/04/25 01:45:03;;;;;;;4.83;2.43;;;8.00;77.60;;;;;;4976955;28;20455;-48
2021/04/25 01:47:29;;;;;;;4.30;2.30;;;8.00;78.00;;;;;;4976746;28;20471;-50
2021/04/25 01:49:55;;;;;;;4.60;2.70;;;7.90;79.10;;;;;;4976576;28;20447;-49
2021/04/25 01:52:21;;;;;;;6.50;2.37;;;7.80;80.00;;;;;;4976137;28;20483;-51
2021/04/25 01:54:48;;;;;;;5.10;2.70;;;7.80;81.10;;;;;;4976687;28;20776;-48
2021/04/25 01:57:15;;;;;;;4.23;2.60;;;7.90;81.40;;;;;;4976885;28;20490;-52
2021/04/25 01:59:41;;;;;;;3.30;2.70;;;7.90;82.10;;;;;;4976493;28;20451;-47
2021/04/25 02:02:07;;;;;;;5.10;2.70;;;7.80;82.30;;;;;;4976301;28;20451;-49
2021/04/25 02:04:33;;;;;;;5.07;2.60;;;7.80;83.00;;;;;;4976229;28;20530;-51
2021/04/25 02:07:00;;;;;;;5.30;2.40;;;7.80;83.60;;;;;;4976115;28;20455;-50
2021/04/25 02:09:26;;;;;;;3.47;2.13;;;7.70;84.70;;;;;;4976444;28;20451;-50
2021/04/25 02:11:52;;;;;;;5.10;3.10;;;7.70;85.80;;;;;;4988392;28;20467;-48
2021/04/25 02:14:19;;;;;;;6.63;2.80;;;7.60;87.20;;;;;;4998640;28;20451;-46
2021/04/25 02:16:45;;;;;;;4.30;2.97;;;7.60;88.40;;;;;;4998945;28;20482;-59
2021/04/25 02:19:14;;;;;;;6.40;2.60;;;7.60;89.50;;;;;;4999416;28;20427;-52
2021/04/25 02:21:40;;;;;;;7.27;3.13;;;7.60;90.30;;;;;;4999532;28;20486;-51
2021/04/25 02:24:08;;;;;;;4.83;2.43;;;7.60;89.90;;;;;;4999442;28;20492;-54
2021/04/25 02:26:34;;;;;;;8.53;4.43;;;7.60;89.50;;;;;;4999307;28;20454;-52
2021/04/25 02:29:00;;;;;;;4.83;2.10;;;7.60;90.00;;;;;;4998976;28;20443;-50
2021/04/25 02:31:27;;;;;;;6.93;2.50;;;7.70;90.00;;;;;;4998891;28;20447;-57
2021/04/25 02:33:56;;;;;;;5.80;2.90;;;7.70;90.00;;;;;;5017028;28;20430;-56
2021/04/25 02:36:22;;;;;;;5.10;2.67;;;7.70;90.70;;;;;;5017850;28;20485;-53
2021/04/25 02:38:48;;;;;;;6.13;3.03;;;7.60;91.10;;;;;;5018318;28;20456;-54
2021/04/25 02:41:15;;;;;;;4.13;2.63;;;7.60;91.40;;;;;;5017847;28;20442;-54
2021/04/25 02:43:41;;;;;;;4.17;2.57;;;7.50;91.70;;;;;;5017591;28;21044;-54
2021/04/25 02:46:10;;;;;;;7.00;2.93;;;7.50;91.80;;;;;;5017573;28;20441;-50
2021/04/25 02:48:37;;;;;;;5.03;2.90;;;7.50;91.80;;;;;;5017173;28;20426;-53
2021/04/25 02:51:04;;;;;;;5.80;2.97;;;7.50;92.10;;;;;;5017179;28;20462;-47
2021/04/25 02:53:30;;;;;;;4.50;2.87;;;7.40;92.60;;;;;;5017674;28;20458;-52
2021/04/25 02:55:56;;;;;;;5.00;2.37;;;7.40;92.90;;;;;;5019064;28;20466;-51
2021/04/25 02:58:24;;;;;;;3.87;2.40;;;7.30;93.10;;;;;;5018934;28;20438;-50
2021/04/25 03:00:53;;;;;;;4.90;2.00;;;7.30;93.50;;;;;;5018192;28;20435;-47
2021/04/25 03:03:19;;;;;;;5.73;2.77;;;7.30;93.40;;;;;;5018169;28;20419;-54
2021/04/25 03:05:49;;;;;;;6.27;2.87;;;7.30;93.50;;;;;;5018541;28;20465;-54
2021/04/25 03:08:18;;;;;;;4.50;2.63;;;7.30;93.50;;;;;;5018361;28;20434;-47
2021/04/25 03:10:44;;;;;;;4.60;2.57;;;7.30;94.00;;;;;;5018544;28;20442;-47
2021/04/25 03:13:10;;;;;;;5.17;2.67;;;7.20;95.00;;;;;;5018714;28;20453;-58
2021/04/25 03:15:38;;;;;;;5.27;2.77;;;7.20;95.20;;;;;;5018555;28;20482;-58
2021/04/25 03:18:04;;;;;;;5.57;2.90;;;7.20;95.40;;;;;;5018483;28;20441;-54
2021/04/25 03:20:31;;;;;;;4.63;2.77;;;7.10;95.60;;;;;;5018398;28;20434;-58
2021/04/25 03:22:58;;;;;;;4.50;3.50;;;7.10;96.00;;;;;;5018512;28;20434;-50
2021/04/25 03:25:24;;;;;;;4.60;2.60;;;7.10;96.30;;;;;;5017531;28;20449;-49
2021/04/25 03:27:53;;;;;;;3.80;2.80;;;7.10;96.40;;;;;;5018324;28;20422;-52
2021/04/25 03:30:20;;;;;;;6.90;2.57;;;7.10;96.70;;;;;;5017640;28;20426;-50
2021/04/25 03:32:47;;;;;;;2.63;2.20;;;7.10;96.10;;;;;;5017252;28;20458;-53
2021/04/25 03:35:17;;;;;;;5.10;3.00;;;7.10;96.10;;;;;;5017513;28;20442;-53
2021/04/25 03:37:44;;;;;;;4.40;2.67;;;7.20;96.30;;;;;;5017082;28;20497;-53
2021/04/25 03:40:14;;;;;;;5.90;2.70;;;7.20;96.10;;;;;;5016906;28;20442;-53
2021/04/25 03:42:41;;;;;;;9.50;4.13;;;7.30;96.20;;;;;;5016973;28;20429;-54
2021/04/25 03:45:13;;;;;;;5.73;3.00;;;7.30;95.80;;;;;;5017875;28;20451;-51
2021/04/25 03:47:39;;;;;;;4.83;2.20;;;7.30;95.90;;;;;;5021705;28;20453;-52
2021/04/25 03:50:06;;;;;;;3.93;2.60;;;7.20;96.10;;;;;;5021272;28;20434;-51
2021/04/25 03:52:33;;;;;;;5.90;2.53;;;7.20;97.20;;;;;;5021149;28;20473;-53
2021/04/25 03:54:59;;;;;;;9.63;3.20;;;7.20;97.10;;;;;;5020906;28;20473;-49
2021/04/25 03:57:26;;;;;;;5.67;2.90;;;7.20;97.30;;;;;;5020990;28;20462;-49
2021/04/25 03:59:52;;;;;;;4.70;2.73;;;7.30;97.50;;;;;;5021383;28;20442;-54
2021/04/25 04:02:18;;;;;;;4.20;2.70;;;7.30;97.40;;;;;;5021391;28;20474;-49
2021/04/25 04:04:44;;;;;;;3.40;2.23;;;7.30;96.80;;;;;;5021583;28;20477;-50
2021/04/25 04:07:10;;;;;;;5.00;2.50;;;7.40;96.00;;;;;;5021446;28;20430;-47
2021/04/25 04:09:36;;;;;;;4.83;3.03;;;7.40;94.90;;;;;;5021712;28;20465;-48
2021/04/25 04:12:03;;;;;;;4.17;2.60;;;7.50;94.40;;;;;;5021819;28;20514;-56
2021/04/25 04:14:30;;;;;;;7.20;2.40;;;7.50;94.00;;;;;;5021123;28;20442;-49
2021/04/25 04:16:56;;;;;;;4.67;2.37;;;7.50;93.20;;;;;;5022142;28;20496;-49
2021/04/25 04:21:54;;;;;;;6.50;3.10;;;7.60;93.50;;;;;;4997966;28;20489;-52
2021/04/25 04:24:22;;;;;;;4.40;2.20;;;7.70;93.30;;;;;;5000050;28;20474;-49
2021/04/25 04:26:48;;;;;;;2.93;2.20;;;7.70;92.90;;;;;;5000289;28;20468;-47
2021/04/25 04:29:16;;;;;;;5.30;2.50;;;7.70;93.30;;;;;;4999572;28;20462;-49
2021/04/25 04:31:43;;;;;;;12.97;3.17;;;7.70;93.60;;;;;;4999875;28;20474;-48
2021/04/25 04:34:09;;;;;;;4.43;3.40;;;7.70;93.70;;;;;;4988955;28;20447;-48
2021/04/25 04:36:35;;;;;;;4.33;2.80;;;7.70;94.10;;;;;;4978140;28;20778;-48
2021/04/25 04:39:02;;;;;;;8.40;3.30;;;7.70;94.00;;;;;;4977841;28;20477;-50
2021/04/25 04:41:28;;;;;;;5.20;3.50;;;7.70;94.00;;;;;;4978061;28;20447;-48
2021/04/25 04:43:54;;;;;;;6.27;3.40;;;7.70;94.20;;;;;;4977628;28;20463;-48
2021/04/25 04:46:20;;;;;;;5.27;4.07;;;7.60;94.70;;;;;;4977817;28;20459;-54
2021/04/25 04:48:48;;;;;;;6.67;4.00;;;7.70;94.90;;;;;;4977959;28;20447;-46
2021/04/25 04:51:14;;;;;;;5.13;3.33;;;7.70;95.00;;;;;;4977578;28;20462;-50
2021/04/25 04:53:40;;;;;;;5.30;3.80;;;7.70;95.10;;;;;;4977525;28;20881;-52
2021/04/25 04:56:06;;;;;;;5.63;3.40;;;7.70;95.30;;;;;;4977358;28;20820;-52
2021/04/25 04:58:33;;;;;;;10.57;3.80;;;7.70;95.50;;;;;;4977669;28;20455;-49
2021/04/25 05:00:59;;;;;;;5.60;3.17;;;7.80;95.60;;;;;;4977630;28;20478;-52
2021/04/25 05:03:25;;;;;;;6.70;3.63;;;7.80;95.40;;;;;;4977494;28;20455;-53
2021/04/25 05:05:52;;;;;;;6.80;3.50;;;7.80;95.60;;;;;;4977291;28;20909;-47
2021/04/25 05:08:18;;;;;;;5.50;3.60;;;7.90;96.00;;;;;;4977270;28;20904;-46
2021/04/25 05:10:44;;;;;;;6.40;4.37;;;7.90;96.10;;;;;;4977285;28;20458;-50
2021/04/25 05:13:10;;;;;;;4.87;2.70;;;8.00;95.90;;;;;;4977596;28;20451;-54
2021/04/25 05:15:37;;;;;;;4.90;3.40;;;8.00;95.80;;;;;;4977044;28;20975;-52
2021/04/25 05:18:03;;;;;;;4.13;2.80;;;8.00;95.60;;;;;;4977420;28;20817;-47
2021/04/25 05:20:29;;;;;;;6.47;3.40;;;8.00;95.70;;;;;;4977005;28;20474;-51
2021/04/25 05:22:56;;;;;;;5.03;3.23;;;8.10;95.50;;;;;;4977306;28;20458;-54
2021/04/25 05:25:23;;;;;;;4.23;2.80;;;8.20;95.30;;;;;;4977302;28;20471;-51
2021/04/25 05:27:49;;;;;;;8.87;4.50;;;8.20;95.20;;;;;;4977162;28;20455;-53
2021/04/25 05:30:16;;;;;;;12.77;4.67;;;8.20;94.60;;;;;;4976955;28;20528;-48
2021/04/25 05:32:42;;;;;;;7.00;4.00;;;8.30;94.30;;;;;;4976968;28;20473;-46
2021/04/25 05:35:10;;;;;;;6.10;4.07;;;8.30;94.10;;;;;;4976996;28;20436;-54
2021/04/25 05:37:36;;;;;;;6.90;3.23;;;8.40;94.10;;;;;;4976797;28;20447;-49
2021/04/25 05:40:05;;;;;;;3.70;3.30;;;8.40;94.00;;;;;;4976917;28;20447;-50
2021/04/25 05:42:31;;;;;;;5.77;2.93;;;8.40;93.80;;;;;;4976947;28;20469;-52
2021/04/25 05:44:57;;;;;;;5.83;2.97;;;8.40;93.90;;;;;;4976699;28;20462;-51
2021/04/25 05:47:23;;;;;;;5.53;3.80;;;8.50;94.00;;;;;;4976933;28;20450;-45
2021/04/25 05:49:50;;;;;;;4.77;3.40;;;8.50;94.10;;;;;;4976305;28;20562;-53
2021/04/25 05:52:16;;;;;;;4.00;2.53;;;8.50;93.90;;;;;;4976508;28;20464;-47
2021/04/25 05:54:42;;;;;;;4.90;2.10;;;8.60;93.70;;;;;;4976857;28;20455;-48
2021/04/25 05:57:09;;;;;;;2.90;2.00;;;8.60;92.50;;;;;;4976278;28;20482;-53
2021/04/25 05:59:37;;;;;;;5.70;3.47;;;8.70;92.30;;;;;;4976248;28;20513;-53
2021/04/25 06:02:03;;;;;;;4.53;2.67;;;8.70;91.90;;;;;;4976315;28;20478;-50
2021/04/25 06:04:29;;;;;;;7.80;2.90;;;8.70;91.80;;;;;;4976492;28;20517;-45
2021/04/25 06:06:56;;;;;;;5.00;3.60;;;8.80;91.60;;;;;;4976383;28;20774;-50
2021/04/25 06:09:22;;;;;;;4.23;2.03;;;8.90;91.40;;;;;;4975706;28;20455;-53
2021/04/25 06:11:49;;;;;;;5.93;3.30;;;8.90;91.00;;;;;;4976474;28;20486;-51
2021/04/25 06:14:16;;;;;;;7.47;3.13;;;8.90;90.80;;;;;;4976340;28;20839;-47
2021/04/25 06:16:42;;;;;;;4.40;2.20;;;8.90;90.70;;;;;;4975854;28;20979;-48
2021/04/25 06:19:08;;;;;;;8.23;3.07;;;9.00;89.50;;;;;;4975867;28;20469;-52
2021/04/25 06:21:35;;;;;;;4.23;2.60;;;9.00;88.50;;;;;;4975805;28;20479;-48
2021/04/25 06:24:01;;;;;;;3.63;2.70;;;9.10;87.80;;;;;;4976181;28;20474;-53
2021/04/25 06:26:27;;;;;;;5.97;2.80;;;9.10;87.60;;;;;;4976064;28;20458;-46
2021/04/25 06:28:53;;;;;;;4.67;3.20;;;9.10;86.50;;;;;;4976142;28;20444;-53
2021/04/25 06:31:21;;;;;;;5.67;2.20;;;9.10;85.80;;;;;;4975816;28;20455;-51
2021/04/25 06:33:47;;;;;;;3.97;1.97;;;9.10;86.20;;;;;;4978924;28;20478;-53
2021/04/25 06:36:14;;;;;;;4.30;2.30;;;9.10;84.80;;;;;;4998723;28;20517;-54
2021/04/25 06:38:40;;;;;;;4.63;2.43;;;9.10;84.40;;;;;;4998788;28;20435;-53
2021/04/25 06:41:06;;;;;;;4.83;2.10;;;9.10;83.80;;;;;;4998764;28;20431;-51
2021/04/25 06:43:33;;;;;;;4.97;3.23;;;9.20;84.10;;;;;;4998530;28;20446;-52
2021/04/25 06:46:00;;;;;;;3.30;2.77;;;9.30;82.90;;;;;;4998457;28;20467;-53
2021/04/25 06:48:27;;;;;;;5.27;2.40;;;9.40;82.20;;;;;;4998652;28;20431;-53
2021/04/25 06:50:53;;;;;;;5.00;2.30;;;9.40;81.30;;;;;;4998713;28;20459;-54
2021/04/25 06:53:20;;;;;;;5.73;2.60;;;9.40;80.90;;;;;;4998934;28;20431;-53
2021/04/25 06:55:46;;;;;;;4.67;2.70;;;9.30;81.80;;;;;;5014249;28;20481;-53
2021/04/25 06:58:12;;;;;;;4.10;2.37;;;9.30;81.20;;;;;;5017912;28;20438;-48
2021/04/25 07:00:39;;;;;;;5.40;2.83;;;9.40;81.30;;;;;;5018210;28;20449;-45
2021/04/25 07:03:05;;;;;;;5.47;2.17;;;9.50;80.30;;;;;;5018347;28;20450;-45
2021/04/25 07:05:32;;;;;;;2.70;1.97;;;9.40;79.40;;;;;;5017985;28;20441;-55
2021/04/25 07:07:59;;;;;;;3.50;1.80;;;9.40;79.10;;;;;;5017929;28;20450;-53
2021/04/25 07:10:26;;;;;;;3.20;1.50;;;9.40;78.80;;;;;;5018311;28;20459;-51
2021/04/25 07:12:52;;;;;;;2.67;1.97;;;9.30;78.80;;;;;;5016219;28;20531;-47
2021/04/25 07:15:19;;;;;;;5.23;2.50;;;9.20;78.40;;;;;;4999201;28;20443;-49
2021/04/25 07:17:45;;;;;;;5.13;2.20;;;9.20;78.20;;;;;;4999448;28;20439;-51
2021/04/25 07:20:13;;;;;;;3.87;3.23;;;9.10;79.30;;;;;;4999068;28;20458;-50
2021/04/25 07:22:41;;;;;;;5.23;2.40;;;9.20;79.20;;;;;;4999287;28;20451;-48
2021/04/25 07:25:09;;;;;;;2.87;2.00;;;9.10;78.60;;;;;;4999124;28;20442;-56
2021/04/25 07:27:35;;;;;;;2.40;1.80;;;9.10;79.30;;;;;;4999235;28;20451;-56
2021/04/25 07:30:02;;;;;;;3.43;2.10;;;9.20;79.50;;;;;;4999189;28;20431;-49
2021/04/25 07:32:28;;;;;;;3.13;1.80;;;9.20;78.90;;;;;;4999291;28;20465;-53
2021/04/25 07:34:55;;;;;;;3.40;2.60;;;9.30;77.00;;;;;;4999003;28;20458;-52
2021/04/25 07:37:21;;;;;;;7.27;2.67;;;9.40;77.10;;;;;;4998853;28;20487;-51
2021/04/25 07:39:48;;;;;;;3.00;2.20;;;9.50;76.80;;;;;;4998897;28;20540;-48
2021/04/25 07:42:15;;;;;;;4.07;2.13;;;9.60;75.90;;;;;;4998504;28;20451;-48
2021/04/25 07:44:43;;;;;;;5.50;2.10;;;9.70;75.40;;;;;;4997818;28;20450;-51
2021/04/25 07:47:09;;;;;;;4.00;3.10;;;9.80;73.10;;;;;;4998178;28;20442;-53
2021/04/25 07:49:36;;;;;;;2.70;2.00;;;9.90;72.60;;;;;;4998086;28;20435;-52
2021/04/25 07:52:02;;;;;;;3.83;2.40;;;10.00;70.30;;;;;;4997855;28;20458;-54
2021/04/25 07:54:29;;;;;;;3.57;2.33;;;10.00;70.00;;;;;;4997946;28;20462;-54
2021/04/25 07:56:56;;;;;;;6.63;2.00;;;9.90;71.00;;;;;;4997854;28;20553;-54
2021/04/25 07:59:22;;;;;;;2.70;1.83;;;9.90;70.20;;;;;;4997898;28;20439;-54
2021/04/25 08:01:49;;;;;;;2.77;2.10;;;9.90;69.40;;;;;;4997339;28;20431;-51
2021/04/25 08:04:15;;;;;;;2.80;1.63;;;10.00;67.60;;;;;;4997764;28;20518;-53
2021/04/25 08:06:43;;;;;;;5.67;2.00;;;10.20;67.10;;;;;;4997593;28;20488;-53
2021/04/25 08:09:09;;;;;;;3.20;1.63;;;10.40;68.00;;;;;;4997589;28;20465;-57
2021/04/25 08:11:36;;;;;;;3.43;2.07;;;10.50;68.30;;;;;;4997497;28;20462;-51
2021/04/25 08:14:04;;;;;;;3.13;2.33;;;10.60;68.70;;;;;;4997556;28;20431;-52
2021/04/25 08:16:30;;;;;;;2.50;1.80;;;10.90;69.40;;;;;;4997184;28;20474;-51
2021/04/25 08:18:57;;;;;;;3.63;2.27;;;11.10;66.10;;;;;;4997187;28;20447;-51
2021/04/25 08:21:23;;;;;;;7.30;2.77;;;11.70;65.50;;;;;;4996663;28;20494;-50
2021/04/25 08:23:50;;;;;;;2.97;1.50;;;12.80;62.60;;;;;;4996900;28;20481;-53
2021/04/25 08:26:16;;;;;;;3.40;1.80;;;14.30;58.90;;;;;;4996048;28;20451;-52
2021/04/25 08:28:43;;;;;;;3.40;2.10;;;15.50;55.10;;;;;;4996383;28;20450;-51
2021/04/25 08:31:10;;;;;;;3.63;2.13;;;15.80;51.30;;;;;;4996440;28;20447;-52
2021/04/25 08:33:38;;;;;;;3.83;2.07;;;15.80;50.40;;;;;;4986838;28;20439;-51
2021/04/25 08:36:06;;;;;;;2.53;2.20;;;16.20;49.60;;;;;;4980619;29;20514;-51
2021/04/25 08:38:32;;;;;;;4.00;1.90;;;16.10;48.50;;;;;;4961915;29;20464;-50
2021/04/25 10:27:18;;;;;;;5.73;1.87;;;12.50;64.40;;;;;;5724032;23;20473;-49
2021/04/25 11:47:17;;;;;;;2.00;1.80;;;14.60;47.60;;;;;;5195857;23;20489;-55
2021/04/25 11:49:46;;;;;;;3.10;2.30;;;14.40;48.70;;;;;;5016932;28;20528;-53
2021/04/25 11:52:15;;;;;;;4.40;2.00;;;14.50;48.90;;;;;;5016974;28;20426;-51
2021/04/25 11:54:43;;;;;;;2.93;1.67;;;14.60;49.70;;;;;;5017523;28;20421;-51
2021/04/25 11:57:11;;;;;;;1.73;1.03;;;14.90;49.60;;;;;;5017359;28;20529;-51
2021/04/25 11:59:50;;;;;;;2.77;1.40;;;14.90;47.60;;;;;;5017055;28;20544;-53
2021/04/25 12:02:18;;;;;;;1.77;1.43;;;14.60;46.50;;;;;;5017503;28;20457;-53
2021/04/25 12:04:45;;;;;;;3.00;1.70;;;14.40;47.10;;;;;;5017737;28;20442;-52
2021/04/25 12:07:12;;;;;;;1.83;1.40;;;14.20;47.00;;;;;;5012238;28;20414;-53
2021/04/25 12:09:40;;;;;;;2.27;1.30;;;14.00;45.60;;;;;;5017115;28;20426;-54
2021/04/25 12:12:07;;;;;;;1.80;1.20;;;13.90;45.10;;;;;;5018231;28;20445;-45
2021/04/25 12:14:34;;;;;;;1.90;1.10;;;13.90;44.50;;;;;;5010931;28;20472;-52
2021/04/25 12:17:11;;;;;;;2.50;1.53;;;13.80;43.10;;;;;;5013828;28;20465;-53
2021/04/25 12:19:38;;;;;;;4.00;1.40;;;13.60;42.30;;;;;;5016527;28;20423;-51
2021/04/25 12:22:05;;;;;;;1.87;1.13;;;13.30;42.50;;;;;;5014368;28;20446;-50
2021/04/25 12:24:32;;;;;;;9.10;1.60;;;13.30;42.80;;;;;;5015198;28;20434;-53
2021/04/25 12:26:58;;;;;;;2.97;1.13;;;13.30;42.60;;;;;;5019939;28;20422;-52
2021/04/25 12:29:35;;;;;;;3.00;1.20;;;13.30;42.00;;;;;;5015650;28;20922;-53
2021/04/25 12:32:03;;;;;;;2.80;1.37;;;13.10;42.30;;;;;;5015668;28;20450;-54
2021/04/25 12:34:31;;;;;;;1.80;1.17;;;13.20;43.00;;;;;;5019986;28;20452;-49
2021/04/25 12:37:01;;;;;;;2.43;1.57;;;13.20;41.90;;;;;;5020360;28;20465;-50
2021/04/25 12:39:41;;;;;;;1.70;1.20;;;13.20;41.00;;;;;;5017201;28;20481;-54
2021/04/25 12:42:21;;;;;;;1.90;1.10;;;13.20;39.70;;;;;;5019437;28;20445;-54
2021/04/25 12:44:47;;;;;;;1.40;0.90;;;13.20;41.80;;;;;;5018398;28;20442;-54
2021/04/25 12:47:14;;;;;;;2.00;1.40;;;13.30;40.20;;;;;;5019774;28;20512;-52
2021/04/25 12:49:42;;;;;;;61.63;35.17;;;13.40;40.40;;;;;;5019120;28;20437;-52
2021/04/25 12:52:11;;;;;;;2.57;1.30;;;13.50;40.90;;;;;;5010277;28;20442;-53
2021/04/25 12:54:41;;;;;;;4.60;1.47;;;13.60;40.40;;;;;;5019777;28;20430;-54
2021/04/25 12:57:08;;;;;;;1.80;1.00;;;13.50;41.10;;;;;;5019319;28;20482;-54
2021/04/25 12:59:36;;;;;;;3.50;2.03;;;13.40;40.10;;;;;;5019670;28;20478;-50
2021/04/25 13:02:09;;;;;;;4.73;1.00;;;13.30;39.60;;;;;;5018338;28;20465;-55
2021/04/25 13:04:38;;;;;;;1.70;1.30;;;13.20;40.00;;;;;;5009735;28;20504;-56
2021/04/25 13:07:36;;;;;;;3.30;1.30;;;13.30;39.60;;;;;;5001124;28;20465;-53
2021/04/25 13:10:26;;;;;;;1.60;1.00;;;13.20;39.10;;;;;;4974593;28;20470;-46
2021/04/25 13:12:54;;;;;;;1.40;1.10;;;13.40;40.00;;;;;;4981713;28;20455;-49
2021/04/25 13:15:32;;;;;;;1.20;1.10;;;13.60;40.70;;;;;;4983495;28;20470;-47
2021/04/25 13:18:00;;;;;;;5.97;3.50;;;13.70;40.60;;;;;;4981825;28;20474;-52
2021/04/25 13:20:29;;;;;;;2.67;1.03;;;13.80;40.60;;;;;;4981940;28;20462;-56
2021/04/25 13:23:00;;;;;;;4.17;2.37;;;13.90;39.30;;;;;;5001424;28;20442;-52
2021/04/25 13:25:28;;;;;;;2.57;1.80;;;14.10;40.20;;;;;;4999345;28;20513;-49
2021/04/25 13:27:58;;;;;;;2.13;1.13;;;14.20;39.60;;;;;;4997131;28;20789;-53
2021/04/25 13:30:25;;;;;;;2.30;1.20;;;14.40;37.00;;;;;;5000354;28;20782;-49
2021/04/25 13:32:51;;;;;;;1.30;0.83;;;14.60;37.30;;;;;;5000355;28;20458;-50
2021/04/25 13:35:18;;;;;;;1.97;1.30;;;14.80;37.20;;;;;;5000305;28;20446;-55
2021/04/25 13:37:44;;;;;;;2.57;1.40;;;14.80;35.90;;;;;;5000162;28;20478;-51
2021/04/25 13:40:14;;;;;;;1.83;1.20;;;15.00;37.20;;;;;;5002006;28;20768;-49
2021/04/25 13:42:40;;;;;;;3.03;1.30;;;15.10;37.70;;;;;;4998706;28;20457;-53
2021/04/25 13:45:08;;;;;;;1.70;1.40;;;15.20;36.10;;;;;;4996690;28;20457;-55
2021/04/25 13:47:34;;;;;;;1.70;1.20;;;15.00;36.00;;;;;;4999633;28;20524;-53
2021/04/25 13:50:01;;;;;;;4.43;1.23;;;14.90;36.20;;;;;;5001143;28;20442;-52
2021/04/25 13:52:27;;;;;;;1.53;1.13;;;14.70;35.70;;;;;;5000518;28;20446;-49
2021/04/25 13:54:53;;;;;;;2.53;1.60;;;14.60;36.70;;;;;;5000758;28;20493;-49
2021/04/25 13:57:21;;;;;;;4.80;1.40;;;14.40;36.00;;;;;;5001035;28;20488;-53
2021/04/25 13:59:47;;;;;;;1.93;1.00;;;14.20;35.00;;;;;;5000857;28;20454;-53
2021/04/25 14:02:13;;;;;;;1.10;0.70;;;14.30;35.60;;;;;;4995761;28;20441;-49
2021/04/25 14:04:42;;;;;;;1.43;1.00;;;14.50;35.40;;;;;;5006959;28;20446;-50
2021/04/25 14:07:16;;;;;;;5.43;1.20;;;14.50;34.50;;;;;;4999802;28;20465;-50
2021/04/25 14:09:42;;;;;;;1.73;1.03;;;14.30;34.10;;;;;;4999430;28;20442;-52
2021/04/25 14:12:09;;;;;;;1.43;1.00;;;14.20;34.10;;;;;;5000069;28;20501;-57
2021/04/25 14:14:36;;;;;;;1.90;1.17;;;14.00;34.10;;;;;;5002805;28;20445;-54
2021/04/25 14:17:02;;;;;;;1.83;1.00;;;13.80;35.30;;;;;;5010648;28;20826;-53
2021/04/25 14:19:29;;;;;;;3.37;1.00;;;13.70;35.70;;;;;;5000170;28;20482;-51
2021/04/25 14:21:55;;;;;;;2.40;1.37;;;13.50;36.10;;;;;;4999035;28;20453;-49
2021/04/25 14:24:21;;;;;;;3.63;1.00;;;13.40;36.70;;;;;;5000132;28;20524;-51
2021/04/25 14:26:48;;;;;;;1.30;0.80;;;13.30;36.80;;;;;;4999598;28;20550;-53
2021/04/25 14:29:15;;;;;;;2.43;1.10;;;13.20;36.40;;;;;;4999245;28;20454;-46
2021/04/25 14:31:42;;;;;;;1.10;0.90;;;13.10;37.40;;;;;;4999378;28;20529;-49
2021/04/25 14:34:08;;;;;;;1.60;0.80;;;13.10;37.80;;;;;;4997962;28;20847;-55
2021/04/25 14:36:35;;;;;;;1.57;1.00;;;13.10;37.90;;;;;;4999140;28;20466;-50
2021/04/25 14:39:01;;;;;;;1.20;0.93;;;13.10;38.00;;;;;;4999674;28;20473;-54
2021/04/25 14:41:30;;;;;;;2.40;1.10;;;13.00;38.50;;;;;;4999581;28;20446;-52
2021/04/25 14:43:58;;;;;;;3.50;1.00;;;13.00;38.60;;;;;;4998693;28;20461;-54
2021/04/25 14:46:24;;;;;;;1.50;0.93;;;13.10;38.80;;;;;;4999495;28;20485;-54
2021/04/25 14:48:51;;;;;;;1.93;1.10;;;13.30;38.60;;;;;;4998861;28;20473;-52
2021/04/25 14:51:17;;;;;;;3.53;1.17;;;13.50;39.00;;;;;;4999217;28;20540;-52
2021/04/25 14:53:43;;;;;;;3.30;1.20;;;13.80;38.40;;;;;;4998905;28;20484;-49
2021/04/25 14:56:12;;;;;;;1.53;1.00;;;13.90;37.80;;;;;;4999375;28;20450;-50
2021/04/25 14:58:38;;;;;;;2.90;1.40;;;14.10;36.70;;;;;;4999065;28;20449;-46
2021/04/25 15:01:05;;;;;;;2.10;0.90;;;14.20;36.70;;;;;;4999335;28;20466;-52
2021/04/25 15:03:31;;;;;;;1.80;1.40;;;14.20;37.30;;;;;;4999228;28;20447;-47
2021/04/25 15:05:58;;;;;;;2.03;1.27;;;14.10;36.80;;;;;;4998419;28;20958;-46
2021/04/25 15:08:27;;;;;;;1.40;1.10;;;13.90;37.70;;;;;;4998901;28;20456;-46
2021/04/25 15:10:55;;;;;;;3.60;1.80;;;13.70;38.00;;;;;;4999011;28;20465;-53
2021/04/25 15:13:21;;;;;;;3.70;1.57;;;13.60;39.40;;;;;;4999178;28;20450;-50
2021/04/25 15:15:47;;;;;;;2.83;0.97;;;13.50;39.50;;;;;;4999070;28;20454;-52
2021/04/25 15:18:13;;;;;;;2.60;1.27;;;13.40;39.70;;;;;;4999117;28;20505;-54
2021/04/25 15:20:40;;;;;;;1.47;0.83;;;13.20;39.40;;;;;;4999395;28;20912;-49
2021/04/25 15:23:08;;;;;;;4.17;1.93;;;13.20;39.60;;;;;;4999248;28;20446;-49
2021/04/25 15:25:35;;;;;;;1.70;1.03;;;13.20;39.50;;;;;;4999006;28;20438;-56
2021/04/25 15:28:01;;;;;;;1.40;1.03;;;13.10;39.30;;;;;;4999297;28;20899;-52
2021/04/25 15:30:30;;;;;;;1.30;1.10;;;13.10;40.70;;;;;;4999212;28;20516;-51
2021/04/25 15:32:57;;;;;;;2.17;1.10;;;13.00;39.60;;;;;;4998939;28;20561;-54
2021/04/25 15:35:27;;;;;;;2.60;0.90;;;13.00;39.20;;;;;;4999030;28;20450;-53
2021/04/25 15:37:54;;;;;;;2.90;0.97;;;12.90;39.60;;;;;;4999293;28;20868;-52
2021/04/25 15:40:22;;;;;;;2.60;1.20;;;12.90;40.30;;;;;;4999251;28;20488;-54
2021/04/25 15:42:49;;;;;;;1.90;1.13;;;12.90;39.50;;;;;;5002425;28;20786;-53
2021/04/25 15:45:17;;;;;;;4.80;2.57;;;12.80;39.20;;;;;;5002811;28;20449;-49
2021/04/25 15:47:44;;;;;;;1.33;0.83;;;12.70;38.60;;;;;;5002796;28;20560;-54
2021/04/25 15:50:14;;;;;;;1.20;0.80;;;12.50;36.80;;;;;;5003331;28;20986;-46
2021/04/25 15:52:40;;;;;;;1.70;1.00;;;12.40;37.80;;;;;;5003219;28;20460;-52
2021/04/25 15:55:08;;;;;;;1.60;1.00;;;12.40;37.40;;;;;;5003392;28;20453;-51
2021/04/25 15:57:35;;;;;;;2.40;0.90;;;12.30;37.20;;;;;;5003252;28;20481;-54
2021/04/25 16:00:01;;;;;;;2.53;1.30;;;12.30;39.10;;;;;;5003233;28;20480;-53
2021/04/25 16:02:28;;;;;;;1.67;1.17;;;12.20;40.00;;;;;;5003394;28;20470;-54
2021/04/25 16:04:55;;;;;;;2.03;1.20;;;12.10;40.70;;;;;;5003036;28;20544;-50
2021/04/25 16:07:21;;;;;;;1.10;0.87;;;12.00;40.80;;;;;;5003243;28;20465;-52
2021/04/25 16:09:47;;;;;;;1.97;1.20;;;12.00;41.20;;;;;;5003557;28;20800;-50
2021/04/25 16:12:14;;;;;;;3.23;1.30;;;12.00;41.60;;;;;;5003265;28;20734;-49
2021/04/25 16:14:41;;;;;;;1.20;0.90;;;12.10;41.50;;;;;;5003473;28;20441;-52
2021/04/25 16:17:07;;;;;;;2.07;0.90;;;12.10;41.40;;;;;;5002764;28;20481;-52
2021/04/25 16:19:34;;;;;;;2.50;1.03;;;12.10;41.50;;;;;;5003269;28;20465;-54
2021/04/25 16:22:00;;;;;;;2.13;1.20;;;12.10;41.40;;;;;;5003017;28;20449;-47
2021/04/25 16:24:27;;;;;;;1.90;1.27;;;12.20;41.40;;;;;;5003031;28;20449;-49
2021/04/25 16:26:53;;;;;;;2.43;1.53;;;12.20;41.10;;;;;;5002835;28;20489;-52
2021/04/25 16:29:19;;;;;;;1.83;1.20;;;12.30;41.80;;;;;;5002525;28;20457;-52
2021/04/25 16:31:46;;;;;;;2.50;0.90;;;12.40;41.60;;;;;;5002295;28;20450;-53
2021/04/25 16:34:13;;;;;;;3.97;1.40;;;12.50;41.20;;;;;;5003016;28;20438;-54
2021/04/25 16:36:40;;;;;;;4.43;2.00;;;12.60;41.20;;;;;;5002329;28;20493;-46
2021/04/25 16:39:09;;;;;;;2.97;1.80;;;12.60;40.80;;;;;;5002526;28;20481;-52
2021/04/25 16:41:35;;;;;;;4.17;1.50;;;12.60;40.60;;;;;;5001981;28;20468;-52
2021/04/25 16:44:01;;;;;;;1.67;0.97;;;12.60;40.70;;;;;;5002191;28;20469;-51
2021/04/25 16:46:28;;;;;;;2.33;1.10;;;12.50;41.30;;;;;;5002099;28;20480;-52
2021/04/25 16:48:55;;;;;;;1.80;0.87;;;12.40;41.20;;;;;;5002605;28;20807;-51
2021/04/25 16:51:21;;;;;;;4.30;1.37;;;12.20;40.80;;;;;;5002669;28;20461;-49